Time;durP1;ratioP1;P1;durP2;ratioP2;P2;SDS_P1;SDS_P2;PMS_P1;PMS_P2;Temp;Humidity;BMP_temperature;BMP_pressure;BME280_temperature;BME280_humidity;BME280_pressure;Samples;Min_cycle;Max_cycle;Signal;HPM_P1;HPM_P2
2021/04/23 04:11:28;;;;;;;1.20;1.20;;;5.70;99.90;;;;;;5415663;23;20227;-75
2021/04/23 04:13:55;;;;;;;1.20;1.20;;;5.10;99.90;;;;;;4916521;29;20556;-75
2021/04/23 04:16:22;;;;;;;1.10;1.10;;;5.20;99.90;;;;;;4916291;29;20683;-74
2021/04/23 04:18:49;;;;;;;1.00;1.00;;;5.10;99.90;;;;;;4916396;29;20716;-74
2021/04/23 04:21:17;;;;;;;1.10;1.10;;;5.20;99.90;;;;;;4907097;29;20232;-75
2021/04/23 04:23:44;;;;;;;1.30;1.30;;;5.20;99.90;;;;;;4897836;29;20235;-75
2021/04/23 04:26:11;;;;;;;1.13;1.13;;;5.20;99.90;;;;;;4897346;29;20227;-75
2021/04/23 04:28:39;;;;;;;1.03;1.03;;;5.20;99.90;;;;;;4897392;29;20270;-74
2021/04/23 04:31:06;;;;;;;1.10;1.10;;;5.20;99.90;;;;;;4896960;29;20286;-74
2021/04/23 04:33:50;;;;;;;1.00;1.00;;;5.20;99.90;;;;;;4891235;29;20231;-75
2021/04/23 04:36:18;;;;;;;1.13;1.13;;;5.20;99.90;;;;;;4904389;29;20255;-74
2021/04/23 04:38:45;;;;;;;1.20;1.20;;;5.30;99.90;;;;;;4897029;29;20260;-75
2021/04/23 04:41:13;;;;;;;1.20;1.20;;;5.30;99.90;;;;;;4896585;29;20240;-75
2021/04/23 04:43:41;;;;;;;1.30;1.30;;;5.50;99.90;;;;;;4896803;29;20208;-74
2021/04/23 04:46:10;;;;;;;1.20;1.20;;;5.40;99.90;;;;;;4896251;29;20275;-75
2021/04/23 04:48:37;;;;;;;1.10;1.10;;;5.40;99.90;;;;;;4896843;29;20207;-75
2021/04/23 04:51:05;;;;;;;1.23;1.23;;;5.50;99.90;;;;;;4896622;29;20227;-75
2021/04/23 04:53:32;;;;;;;1.20;1.20;;;5.70;99.90;;;;;;4897028;29;20218;-74
2021/04/23 04:56:00;;;;;;;1.30;1.30;;;5.70;99.90;;;;;;4896638;29;20207;-74
2021/04/23 04:58:29;;;;;;;1.30;1.30;;;5.80;99.90;;;;;;4896664;29;20204;-74
2021/04/23 05:00:58;;;;;;;1.20;1.20;;;5.80;99.90;;;;;;4896223;29;20283;-74
2021/04/23 05:03:25;;;;;;;1.20;1.20;;;5.80;99.90;;;;;;4896622;29;20211;-75
2021/04/23 05:05:52;;;;;;;1.10;1.10;;;5.70;99.90;;;;;;4895560;29;20295;-75
2021/04/23 05:08:19;;;;;;;1.17;1.17;;;5.70;99.90;;;;;;4904306;29;20615;-75
2021/04/23 05:10:47;;;;;;;1.33;1.33;;;5.70;99.90;;;;;;4897806;29;20227;-75
2021/04/23 05:13:14;;;;;;;1.20;1.20;;;5.80;99.90;;;;;;4895576;29;20262;-75
2021/04/23 05:15:41;;;;;;;1.20;1.20;;;5.90;99.90;;;;;;4895731;29;20238;-75
2021/04/23 05:18:09;;;;;;;1.27;1.27;;;6.00;99.90;;;;;;4897963;29;20270;-75
2021/04/23 05:20:36;;;;;;;1.20;1.20;;;6.00;99.90;;;;;;4899369;29;20227;-75
2021/04/23 05:23:04;;;;;;;1.10;1.10;;;6.10;99.90;;;;;;4899685;29;20218;-73
2021/04/23 05:25:32;;;;;;;1.17;1.17;;;6.20;99.90;;;;;;4899588;29;20223;-76
2021/04/23 05:27:59;;;;;;;1.17;1.17;;;6.20;99.90;;;;;;4899511;29;20250;-76
2021/04/23 05:30:29;;;;;;;1.07;1.07;;;6.10;99.90;;;;;;4899410;29;20218;-76
2021/04/23 05:32:58;;;;;;;1.00;1.00;;;6.10;99.90;;;;;;4902038;29;20274;-78
2021/04/23 05:35:28;;;;;;;1.00;1.00;;;6.10;99.90;;;;;;4899943;29;20579;-76
2021/04/23 05:37:56;;;;;;;1.03;1.03;;;6.20;99.90;;;;;;4899456;29;20584;-75
2021/04/23 05:40:26;;;;;;;1.00;1.00;;;6.40;99.90;;;;;;4898778;29;20628;-73
2021/04/23 05:42:53;;;;;;;1.17;1.17;;;6.50;99.90;;;;;;4899277;29;20463;-73
2021/04/23 05:45:21;;;;;;;1.13;1.13;;;6.20;99.90;;;;;;4899322;29;20227;-75
2021/04/23 05:47:48;;;;;;;1.00;1.00;;;6.30;99.90;;;;;;4899344;29;20203;-74
2021/04/23 05:50:16;;;;;;;1.00;1.00;;;6.40;99.90;;;;;;4899181;29;20282;-76
2021/04/23 05:52:46;;;;;;;1.00;1.00;;;6.40;99.90;;;;;;4899052;29;20259;-75
2021/04/23 05:55:18;;;;;;;1.00;1.00;;;6.40;99.90;;;;;;4899075;29;20298;-75
2021/04/23 05:57:45;;;;;;;0.90;0.90;;;6.40;99.90;;;;;;4899061;29;20665;-75
2021/04/23 06:00:16;;;;;;;1.07;1.07;;;6.50;99.90;;;;;;4898732;29;20270;-75
2021/04/23 06:02:43;;;;;;;1.00;1.00;;;6.70;99.90;;;;;;4899387;29;20207;-75
2021/04/23 06:05:11;;;;;;;1.07;1.07;;;6.70;99.90;;;;;;4898755;29;20250;-75
2021/04/23 06:07:38;;;;;;;0.90;0.90;;;6.70;99.90;;;;;;4899272;29;20263;-75
2021/04/23 06:10:08;;;;;;;1.10;1.10;;;6.60;99.90;;;;;;4898944;29;20660;-75
2021/04/23 06:12:35;;;;;;;1.20;1.20;;;6.50;99.90;;;;;;4898686;29;20227;-75
2021/04/23 06:15:04;;;;;;;1.10;1.10;;;6.40;99.90;;;;;;4898957;29;20213;-74
2021/04/23 06:17:30;;;;;;;0.93;0.93;;;6.40;99.90;;;;;;4906009;29;20203;-79
2021/04/23 06:19:57;;;;;;;1.03;1.03;;;6.80;99.90;;;;;;4898995;29;20215;-77
2021/04/23 06:22:25;;;;;;;1.20;1.20;;;6.80;99.90;;;;;;4899243;29;20719;-74
2021/04/23 06:24:52;;;;;;;1.03;1.03;;;6.90;99.90;;;;;;4898760;29;20237;-74
2021/04/23 06:27:19;;;;;;;1.00;1.00;;;6.80;99.90;;;;;;4898839;29;20207;-75
2021/04/23 06:29:49;;;;;;;0.90;0.90;;;6.70;99.90;;;;;;4898515;29;20263;-75
2021/04/23 06:32:16;;;;;;;1.07;1.07;;;6.80;99.90;;;;;;4898264;29;20231;-76
2021/04/23 06:34:43;;;;;;;1.10;1.10;;;6.90;99.90;;;;;;4898212;29;20640;-76
2021/04/23 06:37:11;;;;;;;1.00;1.00;;;6.80;99.90;;;;;;4893281;29;20619;-75
2021/04/23 06:39:38;;;;;;;1.10;1.10;;;6.80;99.90;;;;;;4898168;29;20211;-75
2021/04/23 06:42:05;;;;;;;1.00;1.00;;;6.70;99.90;;;;;;4898208;29;20282;-75
2021/04/23 06:44:33;;;;;;;1.13;1.13;;;6.90;99.90;;;;;;4898017;29;20784;-75
2021/04/23 06:46:59;;;;;;;1.07;1.07;;;6.80;99.90;;;;;;4897955;29;20665;-75
2021/04/23 06:49:26;;;;;;;1.10;1.10;;;6.80;99.90;;;;;;4898283;29;20207;-75
2021/04/23 06:51:53;;;;;;;1.10;1.10;;;6.80;99.90;;;;;;4897912;29;20727;-76
2021/04/23 06:54:20;;;;;;;0.80;0.80;;;6.80;99.90;;;;;;4898338;29;20219;-76
2021/04/23 06:56:47;;;;;;;1.20;1.20;;;6.90;99.90;;;;;;4898238;29;20266;-75
2021/04/23 06:59:17;;;;;;;1.03;1.03;;;7.10;99.90;;;;;;4897873;29;20218;-76
2021/04/23 07:01:45;;;;;;;1.00;1.00;;;7.00;99.90;;;;;;4897474;29;20231;-76
2021/04/23 07:04:12;;;;;;;0.90;0.90;;;7.10;99.90;;;;;;4898055;29;20218;-75
2021/04/23 07:06:41;;;;;;;1.10;1.10;;;7.30;99.90;;;;;;4897672;29;20231;-75
2021/04/23 07:09:09;;;;;;;0.80;0.80;;;7.20;99.90;;;;;;4897513;29;20249;-75
2021/04/23 07:11:36;;;;;;;0.90;0.90;;;7.40;99.90;;;;;;4897533;29;20247;-74
2021/04/23 07:14:04;;;;;;;0.80;0.80;;;7.50;99.90;;;;;;4897456;29;20556;-74
2021/04/23 07:16:31;;;;;;;0.90;0.90;;;7.70;99.90;;;;;;4897597;29;20204;-74
2021/04/23 07:18:59;;;;;;;1.00;1.00;;;7.90;99.90;;;;;;4897562;29;20211;-74
2021/04/23 07:21:26;;;;;;;0.93;0.93;;;7.90;99.80;;;;;;4897203;29;20227;-74
2021/04/23 07:23:53;;;;;;;1.10;1.10;;;7.70;99.90;;;;;;4897377;29;20271;-75
2021/04/23 07:26:20;;;;;;;0.90;0.90;;;7.80;99.90;;;;;;4897064;29;20596;-75
2021/04/23 07:28:47;;;;;;;1.03;1.03;;;7.90;99.80;;;;;;4897373;29;20207;-75
2021/04/23 07:31:15;;;;;;;0.90;0.90;;;7.80;99.40;;;;;;4897437;29;20740;-75
2021/04/23 07:33:42;;;;;;;0.90;0.90;;;8.00;99.60;;;;;;4897408;29;20673;-75
2021/04/23 07:36:10;;;;;;;1.10;1.10;;;8.10;99.40;;;;;;4897409;29;20303;-74
2021/04/23 07:38:37;;;;;;;0.87;0.87;;;8.10;99.40;;;;;;4897389;29;20218;-75
2021/04/23 07:41:04;;;;;;;0.90;0.90;;;7.90;99.40;;;;;;4896172;29;20294;-76
2021/04/23 07:43:31;;;;;;;1.00;1.00;;;7.90;99.60;;;;;;4897518;29;20211;-76
2021/04/23 07:46:00;;;;;;;1.13;1.13;;;8.00;99.10;;;;;;4897427;29;20319;-74
2021/04/23 07:48:27;;;;;;;1.00;1.00;;;7.90;98.40;;;;;;4896929;29;20626;-75
2021/04/23 07:50:55;;;;;;;1.00;1.00;;;7.90;99.00;;;;;;4896593;29;20232;-76
2021/04/23 07:53:24;;;;;;;0.87;0.87;;;8.30;98.80;;;;;;4896919;29;20219;-76
2021/04/23 07:55:51;;;;;;;0.90;0.90;;;;;;;;;;4896752;29;20255;-74
2021/04/23 07:58:18;;;;;;;0.90;0.90;;;8.40;97.00;;;;;;4897005;29;20211;-74
2021/04/23 08:00:45;;;;;;;0.80;0.80;;;8.50;97.50;;;;;;4896837;29;20235;-74
2021/04/23 08:03:12;;;;;;;0.90;0.90;;;8.60;97.00;;;;;;4897011;29;20215;-75
2021/04/23 08:05:39;;;;;;;0.80;0.80;;;9.00;96.20;;;;;;4896943;29;20219;-75
2021/04/23 08:08:07;;;;;;;0.80;0.80;;;8.90;93.90;;;;;;4896850;29;20748;-75
2021/04/23 08:10:36;;;;;;;0.90;0.90;;;8.70;93.90;;;;;;4896443;29;20665;-74
2021/04/23 08:13:04;;;;;;;0.93;0.93;;;8.50;94.50;;;;;;4897396;29;20218;-76
2021/04/23 08:15:31;;;;;;;1.00;1.00;;;8.60;94.80;;;;;;4895433;29;20235;-75
2021/04/23 08:17:59;;;;;;;0.90;0.90;;;8.60;95.10;;;;;;4896727;29;20263;-75
2021/04/23 08:20:27;;;;;;;0.90;0.90;;;8.40;99.90;;;;;;4896353;29;20212;-75
2021/04/23 08:22:55;;;;;;;0.97;0.97;;;8.40;93.70;;;;;;4896230;29;20207;-75
2021/04/23 08:25:22;;;;;;;0.93;0.93;;;8.40;93.10;;;;;;4896112;29;20246;-75
2021/04/23 08:27:51;;;;;;;1.00;1.00;;;8.60;93.10;;;;;;4896361;29;20211;-75
2021/04/23 08:30:21;;;;;;;0.90;0.90;;;8.80;99.90;;;;;;4896190;29;20211;-75
2021/04/23 08:32:49;;;;;;;0.90;0.90;;;8.80;92.90;;;;;;4896768;29;20207;-75
2021/04/23 08:35:16;;;;;;;1.00;1.00;;;8.70;93.90;;;;;;4896256;29;20231;-75
2021/04/23 08:37:43;;;;;;;0.90;0.90;;;8.70;94.10;;;;;;4896713;29;20286;-75
2021/04/23 08:40:13;;;;;;;0.90;0.90;;;8.70;99.90;;;;;;4896229;29;20219;-75
2021/04/23 08:42:40;;;;;;;0.90;0.90;;;8.80;93.40;;;;;;4896701;29;20208;-75
2021/04/23 08:45:10;;;;;;;0.90;0.90;;;8.70;94.00;;;;;;4896176;29;20326;-75
2021/04/23 08:47:38;;;;;;;1.00;1.00;;;8.80;93.70;;;;;;4896210;29;20218;-75
2021/04/23 08:50:12;;;;;;;0.90;0.90;;;8.80;99.90;;;;;;4896291;29;20222;-75
2021/04/23 08:52:41;;;;;;;0.80;0.80;;;8.80;94.40;;;;;;4895937;29;20207;-75
2021/04/23 08:55:10;;;;;;;0.83;0.83;;;8.90;93.80;;;;;;4894855;29;20200;-75
2021/04/23 08:57:37;;;;;;;0.80;0.80;;;8.80;94.30;;;;;;4895837;29;20609;-75
2021/04/23 09:00:06;;;;;;;0.97;0.97;;;8.80;94.30;;;;;;4895910;29;20286;-75
2021/04/23 09:02:35;;;;;;;0.90;0.90;;;8.80;94.50;;;;;;4895782;29;20227;-75
2021/04/23 09:05:04;;;;;;;0.80;0.80;;;8.60;93.90;;;;;;4896171;29;20238;-74
2021/04/23 09:07:30;;;;;;;0.90;0.90;;;8.60;93.00;;;;;;4896357;29;20218;-75
2021/04/23 09:10:07;;;;;;;0.90;0.90;;;8.50;93.10;;;;;;4896006;29;20214;-75
2021/04/23 09:12:34;;;;;;;1.00;1.00;;;8.60;92.60;;;;;;4895711;29;20243;-76
2021/04/23 09:15:02;;;;;;;0.80;0.80;;;8.60;93.20;;;;;;4895924;29;20251;-76
2021/04/23 09:17:30;;;;;;;1.00;1.00;;;8.70;92.30;;;;;;4896460;29;20207;-76
2021/04/23 09:19:58;;;;;;;0.80;0.80;;;8.80;92.60;;;;;;4896098;29;20207;-77
2021/04/23 09:22:27;;;;;;;0.83;0.83;;;8.80;92.60;;;;;;4896246;29;20227;-78
2021/04/23 09:24:58;;;;;;;0.80;0.80;;;9.10;92.40;;;;;;4896194;29;20218;-77
2021/04/23 09:27:27;;;;;;;0.87;0.87;;;9.30;92.00;;;;;;4896286;29;20642;-77
2021/04/23 09:29:57;;;;;;;0.80;0.80;;;9.30;91.60;;;;;;4896331;29;20570;-77
2021/04/23 09:32:27;;;;;;;0.83;0.83;;;9.20;91.60;;;;;;4896061;29;20259;-77
2021/04/23 09:34:57;;;;;;;1.00;1.00;;;9.10;91.60;;;;;;4896204;29;20211;-77
2021/04/23 09:37:26;;;;;;;1.00;1.00;;;9.00;91.30;;;;;;4896141;29;20239;-76
2021/04/23 09:40:06;;;;;;;0.80;0.80;;;9.00;91.30;;;;;;4895849;29;20207;-77
2021/04/23 09:42:43;;;;;;;1.00;1.00;;;9.30;91.10;;;;;;4895765;29;20286;-76
2021/04/23 09:45:12;;;;;;;0.80;0.80;;;9.40;90.10;;;;;;4895370;29;20219;-76
2021/04/23 09:47:39;;;;;;;0.80;0.80;;;9.40;90.10;;;;;;4895725;29;20215;-76
2021/04/23 09:50:08;;;;;;;0.80;0.80;;;9.50;89.10;;;;;;4895615;29;20302;-76
2021/04/23 09:52:47;;;;;;;0.77;0.77;;;9.50;88.90;;;;;;4895253;29;20203;-76
2021/04/23 09:55:15;;;;;;;0.60;0.60;;;9.60;88.00;;;;;;4894015;29;20211;-77
2021/04/23 09:57:49;;;;;;;0.80;0.80;;;9.60;87.00;;;;;;4895151;29;20214;-76
2021/04/23 10:00:17;;;;;;;0.90;0.90;;;9.70;97.20;;;;;;4893978;29;20362;-76
2021/04/23 10:02:51;;;;;;;0.80;0.80;;;9.70;87.00;;;;;;4895098;29;20298;-76
2021/04/23 10:05:35;;;;;;;0.70;0.70;;;9.90;86.60;;;;;;4890373;29;20223;-77
2021/04/23 10:08:06;;;;;;;0.80;0.80;;;9.80;88.10;;;;;;4892422;29;20564;-75
2021/04/23 10:10:33;;;;;;;0.70;0.70;;;9.70;87.40;;;;;;4893280;29;20235;-75
2021/04/23 10:13:03;;;;;;;0.80;0.80;;;9.40;88.50;;;;;;4902229;29;20195;-76
2021/04/23 10:15:31;;;;;;;0.90;0.90;;;9.60;88.30;;;;;;4900183;29;20211;-77
2021/04/23 10:18:00;;;;;;;0.77;0.77;;;9.90;88.90;;;;;;4899775;29;20267;-77
2021/04/23 10:20:30;;;;;;;0.70;0.70;;;9.90;97.40;;;;;;4901067;29;20214;-78
2021/04/23 10:22:58;;;;;;;0.80;0.80;;;9.70;88.00;;;;;;4903139;29;20234;-78
2021/04/23 10:25:28;;;;;;;0.73;0.73;;;9.60;87.90;;;;;;4931356;23;20238;-77
2021/04/23 10:27:57;;;;;;;0.80;0.80;;;9.50;88.70;;;;;;4917793;29;20214;-77
2021/04/23 10:30:25;;;;;;;0.70;0.70;;;9.50;89.40;;;;;;4918740;29;20207;-77
2021/04/23 10:33:08;;;;;;;0.80;0.80;;;9.50;89.20;;;;;;4917252;29;20737;-77
2021/04/23 10:35:37;;;;;;;0.80;0.80;;;9.30;90.00;;;;;;4917058;29;20219;-78
2021/04/23 10:38:06;;;;;;;0.90;0.90;;;9.30;90.00;;;;;;4917623;29;20286;-77
2021/04/23 10:40:35;;;;;;;0.70;0.70;;;9.30;90.10;;;;;;4918182;29;20211;-77
2021/04/23 10:43:08;;;;;;;0.70;0.70;;;9.40;90.00;;;;;;4920668;29;20211;-78
2021/04/23 10:45:39;;;;;;;0.70;0.70;;;9.60;89.90;;;;;;4920299;29;20707;-78
2021/04/23 10:48:29;;;;;;;0.90;0.90;;;9.50;89.20;;;;;;4929564;29;20215;-79
2021/04/23 10:50:59;;;;;;;0.83;0.83;;;9.50;90.20;;;;;;4920269;29;20215;-77
2021/04/23 10:53:41;;;;;;;0.80;0.80;;;9.70;89.60;;;;;;4924095;29;20218;-77
2021/04/23 10:56:20;;;;;;;0.83;0.83;;;9.60;89.70;;;;;;4918846;29;20225;-77
2021/04/23 10:58:47;;;;;;;0.80;0.80;;;9.70;88.90;;;;;;4918228;29;20206;-76
2021/04/23 11:01:25;;;;;;;0.80;0.80;;;9.70;89.70;;;;;;4917677;29;20512;-76
2021/04/23 11:04:03;;;;;;;0.90;0.90;;;9.50;98.40;;;;;;4918902;29;20270;-77
2021/04/23 11:06:31;;;;;;;0.90;0.90;;;9.50;89.40;;;;;;4920416;29;20230;-78
2021/04/23 11:09:16;;;;;;;0.70;0.70;;;9.50;89.80;;;;;;4917604;29;20255;-76
2021/04/23 11:12:11;;;;;;;0.80;0.80;;;9.40;90.80;;;;;;4915689;29;20254;-76
2021/04/23 11:14:39;;;;;;;0.80;0.80;;;9.20;91.10;;;;;;4902767;29;20220;-76
2021/04/23 11:17:31;;;;;;;0.80;0.80;;;9.30;91.40;;;;;;4910180;29;20199;-75
2021/04/23 11:19:58;;;;;;;0.77;0.77;;;9.30;91.50;;;;;;4910836;29;20641;-75
2021/04/23 11:22:27;;;;;;;0.80;0.80;;;9.20;91.60;;;;;;4913299;29;20293;-75
2021/04/23 11:25:12;;;;;;;0.80;0.80;;;9.30;91.60;;;;;;4905221;29;20230;-76
2021/04/23 11:28:09;;;;;;;0.60;0.60;;;9.50;91.30;;;;;;4906232;29;20241;-76
2021/04/23 11:31:01;;;;;;;0.80;0.80;;;9.50;91.40;;;;;;4907662;29;20656;-75
2021/04/23 11:33:48;;;;;;;0.70;0.70;;;9.70;90.80;;;;;;4908194;29;20222;-76
2021/04/23 11:36:21;;;;;;;0.80;0.80;;;10.20;89.90;;;;;;4905591;29;20290;-76
2021/04/23 11:38:57;;;;;;;0.80;0.80;;;10.20;90.10;;;;;;4905974;29;20763;-76
2021/04/23 11:41:24;;;;;;;0.70;0.70;;;10.20;87.60;;;;;;4906574;29;20279;-77
2021/04/23 11:43:52;;;;;;;0.80;0.80;;;10.00;88.60;;;;;;4906578;29;20207;-77
2021/04/23 11:46:19;;;;;;;0.80;0.80;;;9.90;89.50;;;;;;4905953;29;20271;-76
2021/04/23 11:48:48;;;;;;;0.95;0.95;;;10.00;89.10;;;;;;4907614;29;20658;-77
2021/04/23 11:51:15;;;;;;;0.80;0.80;;;10.00;88.50;;;;;;4914194;29;20241;-77
2021/04/23 11:53:47;;;;;;;0.80;0.80;;;10.30;88.20;;;;;;4918118;29;20226;-77
2021/04/23 11:56:16;;;;;;;0.60;0.60;;;10.50;86.60;;;;;;4917889;29;20321;-77
2021/04/23 11:58:45;;;;;;;0.70;0.70;;;10.80;84.60;;;;;;4914011;29;20195;-78
2021/04/23 12:01:13;;;;;;;0.80;0.80;;;10.60;84.80;;;;;;4923563;29;20274;-78
2021/04/23 12:03:46;;;;;;;0.70;0.70;;;10.60;84.20;;;;;;4915999;29;20199;-77
2021/04/23 12:06:25;;;;;;;0.90;0.90;;;10.60;84.90;;;;;;4914032;29;20230;-76
2021/04/23 12:08:53;;;;;;;0.70;0.70;;;10.40;85.40;;;;;;4916174;29;20262;-76
2021/04/23 12:11:20;;;;;;;0.70;0.70;;;10.30;86.20;;;;;;4915698;29;20211;-76
2021/04/23 12:13:49;;;;;;;0.70;0.70;;;10.50;86.10;;;;;;4916041;29;20198;-76
2021/04/23 12:16:18;;;;;;;0.70;0.70;;;10.60;86.80;;;;;;4916567;29;20219;-75
2021/04/23 12:18:46;;;;;;;0.80;0.80;;;10.30;98.00;;;;;;4916286;29;20285;-75
2021/04/23 12:21:15;;;;;;;0.80;0.80;;;10.30;87.30;;;;;;4916348;29;20305;-76
2021/04/23 12:23:42;;;;;;;0.70;0.70;;;10.30;88.20;;;;;;4916348;29;20297;-75
2021/04/23 12:26:10;;;;;;;0.90;0.90;;;10.50;88.10;;;;;;4915496;29;20234;-76
2021/04/23 12:28:38;;;;;;;0.70;0.70;;;10.50;87.30;;;;;;4915554;29;20436;-76
2021/04/23 12:31:08;;;;;;;0.70;0.70;;;10.40;88.20;;;;;;4915917;29;20265;-76
2021/04/23 12:33:42;;;;;;;0.80;0.80;;;10.80;87.50;;;;;;4916311;29;20293;-76
2021/04/23 12:36:23;;;;;;;0.70;0.70;;;10.50;87.00;;;;;;4915805;29;20233;-75
2021/04/23 12:38:53;;;;;;;0.80;0.80;;;10.80;88.20;;;;;;4916024;29;20242;-76
2021/04/23 12:41:23;;;;;;;0.70;0.70;;;11.00;85.80;;;;;;4915298;29;20719;-75
2021/04/23 12:43:51;;;;;;;0.70;0.70;;;11.20;84.40;;;;;;4915801;29;20236;-75
2021/04/23 12:46:31;;;;;;;0.70;0.70;;;10.90;84.80;;;;;;4915529;29;20231;-75
2021/04/23 12:49:08;;;;;;;0.80;0.80;;;11.00;85.10;;;;;;4915554;29;20737;-75
2021/04/23 12:51:42;;;;;;;0.70;0.70;;;10.70;86.10;;;;;;4914818;29;20210;-76
2021/04/23 12:54:11;;;;;;;0.80;0.80;;;10.60;87.00;;;;;;4915540;29;20206;-77
2021/04/23 12:56:40;;;;;;;0.70;0.70;;;11.10;88.80;;;;;;4915197;29;20599;-77
2021/04/23 12:59:07;;;;;;;0.60;0.60;;;11.40;89.90;;;;;;4916951;29;20253;-79
2021/04/23 13:01:46;;;;;;;0.60;0.60;;;11.50;87.50;;;;;;4915736;29;20203;-77
2021/04/23 13:04:14;;;;;;;0.70;0.70;;;11.20;84.80;;;;;;4914413;29;20198;-75
2021/04/23 13:06:41;;;;;;;0.70;0.70;;;11.20;85.50;;;;;;4914903;29;20274;-76
2021/04/23 13:09:10;;;;;;;0.70;0.70;;;10.80;86.00;;;;;;4914786;29;20210;-76
2021/04/23 13:11:39;;;;;;;0.70;0.70;;;11.00;85.90;;;;;;4914431;29;20202;-76
2021/04/23 13:14:14;;;;;;;0.82;0.82;;;10.80;86.00;;;;;;4913976;29;20210;-78
2021/04/23 13:17:00;;;;;;;0.80;0.80;;;10.40;87.60;;;;;;4912605;29;20202;-75
2021/04/23 13:19:37;;;;;;;0.60;0.60;;;10.70;87.60;;;;;;4914029;29;20207;-75
2021/04/23 13:22:22;;;;;;;0.70;0.70;;;10.60;86.60;;;;;;4915808;29;20202;-79
2021/04/23 13:24:49;;;;;;;0.85;0.85;;;10.70;87.10;;;;;;4914887;29;20711;-77
2021/04/23 13:27:29;;;;;;;0.70;0.70;;;11.00;84.60;;;;;;4915085;29;20599;-77
2021/04/23 13:29:56;;;;;;;0.60;0.60;;;11.50;84.30;;;;;;4915387;29;20202;-77
2021/04/23 13:32:26;;;;;;;0.70;0.70;;;11.80;83.20;;;;;;4915300;29;20210;-77
2021/04/23 13:34:56;;;;;;;0.60;0.60;;;12.00;88.10;;;;;;4914910;29;20234;-77
2021/04/23 13:37:31;;;;;;;0.70;0.70;;;11.50;89.70;;;;;;4914739;29;20214;-76
2021/04/23 13:40:03;;;;;;;0.75;0.75;;;11.60;88.30;;;;;;4918322;29;20210;-75
2021/04/23 13:42:31;;;;;;;0.70;0.70;;;11.60;88.60;;;;;;4922622;29;20218;-76
2021/04/23 13:45:10;;;;;;;0.70;0.70;;;11.70;86.00;;;;;;4920133;29;20231;-76
2021/04/23 13:47:39;;;;;;;0.80;0.80;;;11.50;87.40;;;;;;4918211;29;20230;-76
2021/04/23 13:50:14;;;;;;;0.70;0.70;;;11.60;86.90;;;;;;4918693;29;20214;-75
2021/04/23 13:52:43;;;;;;;0.60;0.60;;;11.90;87.10;;;;;;4918189;29;20634;-76
2021/04/23 13:55:12;;;;;;;0.70;0.70;;;12.10;86.00;;;;;;4918235;29;20632;-76
2021/04/23 13:57:39;;;;;;;0.60;0.60;;;11.90;86.20;;;;;;4918556;29;20227;-76
2021/04/23 14:00:08;;;;;;;0.60;0.60;;;11.90;86.50;;;;;;4918551;29;20210;-77
2021/04/23 14:02:34;;;;;;;0.70;0.70;;;12.00;86.10;;;;;;4918501;29;20717;-79
2021/04/23 14:05:06;;;;;;;0.70;0.70;;;11.80;85.40;;;;;;4922487;29;20223;-79
2021/04/23 14:07:34;;;;;;;0.70;0.70;;;11.90;85.30;;;;;;4922727;29;20695;-77
2021/04/23 14:10:01;;;;;;;0.68;0.68;;;12.10;85.00;;;;;;4926553;29;20207;-77
2021/04/23 14:12:28;;;;;;;0.60;0.60;;;11.80;87.10;;;;;;4919021;29;20254;-76
2021/04/23 14:14:55;;;;;;;0.70;0.70;;;11.20;86.80;;;;;;4917782;29;20317;-77
2021/04/23 14:17:23;;;;;;;0.77;0.77;;;11.30;86.30;;;;;;4917583;29;20237;-77
2021/04/23 14:19:52;;;;;;;0.70;0.70;;;11.30;85.50;;;;;;4917887;29;20238;-78
2021/04/23 14:22:21;;;;;;;0.50;0.50;;;11.60;83.50;;;;;;4920656;29;20211;-77
2021/04/23 14:24:52;;;;;;;0.70;0.70;;;11.70;84.00;;;;;;4918514;29;20231;-77
2021/04/23 14:27:19;;;;;;;0.63;0.63;;;11.90;84.10;;;;;;4917380;29;20231;-77
2021/04/23 14:29:46;;;;;;;0.60;0.60;;;12.00;84.50;;;;;;4917316;29;20263;-77
2021/04/23 14:32:13;;;;;;;0.50;0.50;;;13.10;84.00;;;;;;4917362;29;20621;-77
2021/04/23 14:34:40;;;;;;;0.60;0.60;;;12.20;81.00;;;;;;4917590;29;20576;-77
2021/04/23 14:37:07;;;;;;;0.70;0.70;;;12.10;80.60;;;;;;4917474;29;20210;-76
2021/04/23 14:39:34;;;;;;;0.60;0.60;;;12.30;79.60;;;;;;4917082;29;20566;-76
2021/04/23 14:42:02;;;;;;;0.60;0.60;;;12.50;79.40;;;;;;4916705;29;20691;-75
2021/04/23 14:44:29;;;;;;;0.60;0.60;;;12.10;79.80;;;;;;4917274;29;20274;-75
2021/04/23 14:46:56;;;;;;;0.60;0.60;;;12.50;79.40;;;;;;4916975;29;20638;-76
2021/04/23 14:49:24;;;;;;;0.50;0.50;;;12.70;81.90;;;;;;4916719;29;20207;-76
2021/04/23 14:51:54;;;;;;;0.60;0.60;;;12.50;83.10;;;;;;4914186;29;20253;-76
2021/04/23 14:54:21;;;;;;;0.52;0.52;;;12.70;82.10;;;;;;4914245;29;20202;-76
2021/04/23 14:56:48;;;;;;;0.70;0.70;;;12.80;84.50;;;;;;4915920;29;20194;-77
2021/04/23 14:59:16;;;;;;;0.70;0.70;;;12.50;84.10;;;;;;4916655;29;20618;-75
2021/04/23 15:01:43;;;;;;;0.55;0.55;;;13.00;99.90;;;;;;4913876;29;20317;-76
2021/04/23 15:04:10;;;;;;;0.50;0.50;;;13.00;76.80;;;;;;4916728;29;20269;-75
2021/04/23 15:06:38;;;;;;;0.60;0.60;;;13.20;90.30;;;;;;4916236;29;20621;-76
2021/04/23 15:09:25;;;;;;;0.70;0.70;;;12.90;90.70;;;;;;4911995;29;20363;-76
2021/04/23 15:11:52;;;;;;;0.63;0.63;;;13.70;76.40;;;;;;4916469;29;20203;-76
2021/04/23 15:14:20;;;;;;;0.60;0.60;;;;;;;;;;4916620;29;20199;-76
2021/04/23 15:16:47;;;;;;;0.50;0.50;;;14.90;69.50;;;;;;4916251;29;20195;-76
2021/04/23 15:19:14;;;;;;;0.40;0.40;;;14.70;69.60;;;;;;4916373;29;20755;-76
2021/04/23 15:21:41;;;;;;;0.40;0.40;;;15.50;68.90;;;;;;4916033;29;20231;-76
2021/04/23 15:24:09;;;;;;;0.50;0.50;;;15.50;66.50;;;;;;4916199;29;20195;-76
2021/04/23 15:26:37;;;;;;;0.30;0.30;;;14.90;67.50;;;;;;4915829;29;20238;-75
2021/04/23 15:29:05;;;;;;;0.50;0.50;;;14.70;67.50;;;;;;4913809;29;20199;-77
2021/04/23 15:31:33;;;;;;;0.50;0.50;;;14.00;69.30;;;;;;4915644;29;20203;-77
2021/04/23 15:34:00;;;;;;;0.50;0.50;;;14.10;70.20;;;;;;4915693;29;20199;-75
2021/04/23 15:36:27;;;;;;;0.40;0.40;;;14.10;69.90;;;;;;4916098;29;20269;-75
2021/04/23 15:38:54;;;;;;;0.40;0.40;;;14.60;70.40;;;;;;4915768;29;20202;-76
2021/04/23 15:41:21;;;;;;;0.50;0.50;;;14.60;68.90;;;;;;4916714;29;20217;-76
2021/04/23 15:43:49;;;;;;;0.50;0.50;;;14.80;68.40;;;;;;4915976;29;20803;-75
2021/04/23 15:46:16;;;;;;;0.50;0.50;;;14.80;67.60;;;;;;4916123;29;20223;-76
2021/04/23 15:48:44;;;;;;;0.60;0.60;;;14.10;69.60;;;;;;4915763;29;20252;-76
2021/04/23 15:51:12;;;;;;;0.50;0.50;;;14.30;68.30;;;;;;4914831;29;20656;-77
2021/04/23 15:53:41;;;;;;;0.40;0.40;;;15.00;67.60;;;;;;4916815;29;20234;-77
2021/04/23 15:56:08;;;;;;;0.32;0.32;;;15.20;66.10;;;;;;4916290;29;20231;-77
2021/04/23 15:58:35;;;;;;;0.40;0.40;;;15.50;65.20;;;;;;4916356;29;20210;-77
2021/04/23 16:01:04;;;;;;;0.40;0.40;;;15.50;63.40;;;;;;4918644;29;20203;-78
2021/04/23 16:03:31;;;;;;;0.32;0.32;;;15.70;64.80;;;;;;4920345;29;20274;-78
2021/04/23 16:05:59;;;;;;;0.40;0.40;;;15.80;64.00;;;;;;4924443;29;20246;-78
2021/04/23 16:08:26;;;;;;;0.50;0.50;;;14.90;64.40;;;;;;4924481;29;20207;-77
2021/04/23 16:10:53;;;;;;;0.50;0.50;;;14.00;67.70;;;;;;4922359;29;20234;-78
2021/04/23 16:13:19;;;;;;;0.40;0.40;;;14.30;67.20;;;;;;4920304;29;20206;-77
2021/04/23 16:15:46;;;;;;;0.40;0.40;;;14.40;66.70;;;;;;4916850;29;20651;-77
2021/04/23 16:18:14;;;;;;;0.50;0.50;;;14.60;66.10;;;;;;4916442;29;20298;-77
2021/04/23 16:20:41;;;;;;;0.40;0.40;;;14.60;66.30;;;;;;4916105;29;20627;-77
2021/04/23 16:23:11;;;;;;;0.50;0.50;;;14.30;67.30;;;;;;4919358;29;20596;-75
2021/04/23 16:25:38;;;;;;;0.30;0.30;;;15.00;66.00;;;;;;4925220;23;20253;-72
2021/04/23 16:28:06;;;;;;;0.30;0.30;;;15.30;64.80;;;;;;4909162;29;20230;-73
2021/04/23 16:30:34;;;;;;;0.30;0.30;;;15.40;63.80;;;;;;4927585;29;20281;-72
2021/04/23 16:33:03;;;;;;;0.40;0.40;;;15.30;65.00;;;;;;4934203;29;20301;-72
2021/04/23 16:35:30;;;;;;;0.40;0.40;;;15.20;63.80;;;;;;4909545;29;20303;-73
2021/04/23 16:37:58;;;;;;;0.40;0.40;;;14.80;65.80;;;;;;4887006;29;20256;-73
2021/04/23 16:40:28;;;;;;;0.30;0.30;;;15.60;62.80;;;;;;4875930;29;20584;-73
2021/04/23 16:42:55;;;;;;;0.40;0.40;;;16.20;62.10;;;;;;4876619;29;20212;-73
2021/04/23 16:45:23;;;;;;;0.40;0.40;;;16.90;59.30;;;;;;4876813;29;20235;-72
2021/04/23 16:47:50;;;;;;;0.40;0.40;;;16.90;60.00;;;;;;4876957;29;20288;-72
2021/04/23 16:50:19;;;;;;;0.47;0.47;;;16.50;59.60;;;;;;4876706;29;20215;-72
2021/04/23 16:52:46;;;;;;;0.40;0.40;;;15.80;61.30;;;;;;4876898;29;20207;-72
2021/04/23 16:55:14;;;;;;;0.50;0.50;;;15.70;62.00;;;;;;4876876;29;20236;-72
2021/04/23 16:57:42;;;;;;;0.50;0.50;;;15.50;63.30;;;;;;4877566;29;20264;-73
2021/04/23 17:00:12;;;;;;;0.40;0.40;;;15.60;64.20;;;;;;4878031;29;20326;-73
2021/04/23 17:02:39;;;;;;;0.40;0.40;;;15.30;63.40;;;;;;4876116;29;20216;-71
2021/04/23 17:05:06;;;;;;;0.40;0.40;;;15.40;62.90;;;;;;4877822;29;20232;-71
2021/04/23 17:07:34;;;;;;;0.32;0.32;;;16.10;62.70;;;;;;4878025;29;20224;-71
2021/04/23 17:10:03;;;;;;;0.50;0.50;;;16.10;61.10;;;;;;4877693;29;20295;-72
2021/04/23 17:12:30;;;;;;;0.30;0.30;;;15.70;60.80;;;;;;4875834;29;20208;-72
2021/04/23 17:14:58;;;;;;;0.30;0.30;;;15.90;60.90;;;;;;4879398;29;20228;-73